createdAt,value
2022-08-11T00:01:59.873Z,25.88
2022-08-11T00:04:34.447Z,25.78
2022-08-11T00:07:03.065Z,25.75
2022-08-11T00:09:39.349Z,25.80
2022-08-11T00:12:13.001Z,25.87
2022-08-11T00:14:40.851Z,25.88
2022-08-11T00:17:09.336Z,25.92
2022-08-11T00:20:15.099Z,26.00
2022-08-11T00:22:33.105Z,26.04
2022-08-11T00:25:08.875Z,26.02
2022-08-11T00:27:37.067Z,26.03
2022-08-11T00:30:05.668Z,26.00
2022-08-11T00:32:33.597Z,25.94
2022-08-11T00:35:53.931Z,25.99
2022-08-11T00:37:53.296Z,25.90
2022-08-11T00:40:28.273Z,25.99
2022-08-11T00:43:01.926Z,26.02
2022-08-11T00:45:32.657Z,25.94
2022-08-11T00:48:05.721Z,25.90
2022-08-11T00:51:05.457Z,25.93
2022-08-11T00:53:37.180Z,25.94
2022-08-11T00:56:13.260Z,25.95
2022-08-11T00:58:53.266Z,25.94
2022-08-11T01:01:27.594Z,25.93
2022-08-11T01:04:14.678Z,25.82
2022-08-11T01:06:41.794Z,25.89
2022-08-11T01:09:22.777Z,25.95
2022-08-11T01:11:55.269Z,26.02
2022-08-11T01:14:41.745Z,26.01
2022-08-11T01:17:27.185Z,26.02
2022-08-11T01:20:47.009Z,25.99
2022-08-11T01:23:03.610Z,26.05
2022-08-11T01:25:34.642Z,26.03
2022-08-11T01:28:40.527Z,26.08
2022-08-11T01:31:20.224Z,26.11
2022-08-11T01:33:50.522Z,26.04
2022-08-11T01:36:36.487Z,26.05
2022-08-11T01:39:22.178Z,25.83
2022-08-11T01:42:24.159Z,25.79
2022-08-11T01:45:03.692Z,25.63
2022-08-11T01:47:53.459Z,25.61
2022-08-11T01:50:39.534Z,25.60
2022-08-11T01:53:21.731Z,25.62
2022-08-11T01:56:08.870Z,25.64
2022-08-11T01:58:44.048Z,25.77
2022-08-11T02:01:30.350Z,25.93
2022-08-11T02:03:57.472Z,26.11
2022-08-11T02:06:55.597Z,26.22
2022-08-11T02:09:49.219Z,26.23
2022-08-11T02:12:42.311Z,26.28
2022-08-11T02:15:22.274Z,26.21
2022-08-11T02:18:08.004Z,26.13
2022-08-11T02:21:00.146Z,26.13
2022-08-11T02:24:05.836Z,25.84
2022-08-11T02:26:34.548Z,25.32
2022-08-11T02:29:10.631Z,25.34
2022-08-11T02:32:14.210Z,25.13
2022-08-11T02:34:43.612Z,25.22
2022-08-11T02:37:27.281Z,25.30
2022-08-11T02:40:05.059Z,25.28
2022-08-11T02:42:38.590Z,25.24
2022-08-11T02:45:16.300Z,24.78
2022-08-11T02:48:25.123Z,24.44
2022-08-11T02:51:13.027Z,24.51
2022-08-11T02:53:54.445Z,24.76
2022-08-11T02:56:44.722Z,24.93
2022-08-11T02:59:38.967Z,25.01
2022-08-11T03:02:22.735Z,24.93
2022-08-11T03:04:51.405Z,25.02
2022-08-11T03:07:28.081Z,24.89
2022-08-11T03:10:07.136Z,24.92
2022-08-11T03:12:59.615Z,24.91
2022-08-11T03:15:50.719Z,24.81
2022-08-11T03:18:25.432Z,24.92
2022-08-11T03:21:02.977Z,24.92
2022-08-11T03:23:33.742Z,24.83
2022-08-11T03:26:19.570Z,24.87
2022-08-11T03:29:06.673Z,24.89
2022-08-11T03:32:02.009Z,24.81
2022-08-11T03:34:31.363Z,24.84
2022-08-11T03:37:50.576Z,24.81
2022-08-11T03:40:54.890Z,24.66
2022-08-11T03:43:28.881Z,24.70
2022-08-11T03:45:57.383Z,24.69
2022-08-11T03:48:39.851Z,24.67
2022-08-11T03:51:19.228Z,24.61
2022-08-11T03:53:58.759Z,24.50
2022-08-11T03:56:44.718Z,24.50
2022-08-11T03:59:30.629Z,24.46
2022-08-11T04:02:03.787Z,24.34
2022-08-11T04:04:31.065Z,24.42
2022-08-11T04:07:04.117Z,24.21
2022-08-11T04:09:37.565Z,24.20
2022-08-11T04:12:07.552Z,24.35
2022-08-11T04:15:03.580Z,24.27
2022-08-11T04:17:47.094Z,24.27
2022-08-11T04:20:22.985Z,24.27
2022-08-11T04:22:50.111Z,24.33
2022-08-11T04:25:20.309Z,24.33
2022-08-11T04:27:50.490Z,24.34
2022-08-11T04:30:23.280Z,24.37
2022-08-11T04:33:18.540Z,24.39
2022-08-11T04:36:04.195Z,24.40
2022-08-11T04:38:38.281Z,24.33
2022-08-11T04:41:26.805Z,24.39
2022-08-11T04:44:05.701Z,24.10
2022-08-11T04:46:57.058Z,23.83
2022-08-11T04:49:55.286Z,23.69
2022-08-11T04:52:59.177Z,23.75
2022-08-11T04:55:51.615Z,23.93
2022-08-11T04:58:56.896Z,24.02
2022-08-11T05:01:42.320Z,24.09
2022-08-11T05:04:47.060Z,24.21
2022-08-11T05:07:14.290Z,24.22
2022-08-11T05:10:04.563Z,24.02
2022-08-11T05:12:41.328Z,24.03
2022-08-11T05:15:31.276Z,24.10
2022-08-11T05:18:35.744Z,24.19
2022-08-11T05:21:29.205Z,24.24
2022-08-11T05:24:22.094Z,24.24
2022-08-11T05:27:13.306Z,24.31
2022-08-11T05:30:16.635Z,24.34
2022-08-11T05:33:04.962Z,24.39
2022-08-11T05:36:01.567Z,24.43
2022-08-11T05:38:45.990Z,24.45
2022-08-11T05:41:33.048Z,24.59
2022-08-11T05:44:22.327Z,24.68
2022-08-11T05:47:09.616Z,24.73
2022-08-11T05:49:56.683Z,24.84
2022-08-11T05:52:48.993Z,24.99
2022-08-11T05:55:35.392Z,25.34
2022-08-11T05:58:18.697Z,25.60
2022-08-11T06:00:46.478Z,25.67
2022-08-11T06:03:25.514Z,25.68
2022-08-11T06:05:54.120Z,25.74
2022-08-11T06:08:28.501Z,25.78
2022-08-11T06:11:00.257Z,25.88
2022-08-11T06:13:27.720Z,25.86
2022-08-11T06:15:56.061Z,25.87
2022-08-11T06:18:23.689Z,25.93
2022-08-11T06:20:52.741Z,26.08
2022-08-11T06:23:23.155Z,26.21
2022-08-11T06:25:52.133Z,26.16
2022-08-11T06:28:21.377Z,26.17
2022-08-11T06:30:49.160Z,26.21
2022-08-11T06:33:29.611Z,26.29
2022-08-11T06:36:15.366Z,26.26
2022-08-11T06:39:02.586Z,26.37
2022-08-11T06:41:34.383Z,26.37
2022-08-11T06:44:13.724Z,26.43
2022-08-11T06:46:42.714Z,26.50
2022-08-11T06:49:31.179Z,26.69
2022-08-11T06:52:07.182Z,26.76
2022-08-11T06:54:57.214Z,26.99
2022-08-11T06:57:43.020Z,27.05
2022-08-11T07:00:28.754Z,27.08
2022-08-11T07:02:56.219Z,27.27
2022-08-11T07:05:26.232Z,27.24
2022-08-11T07:08:49.100Z,27.29
2022-08-11T07:11:53.720Z,27.46
2022-08-11T07:14:43.137Z,27.43
2022-08-11T07:17:14.195Z,27.49
2022-08-11T07:20:01.963Z,27.53
2022-08-11T07:22:50.064Z,27.67
2022-08-11T07:25:35.877Z,27.79
2022-08-11T07:28:25.737Z,27.89
2022-08-11T07:31:02.044Z,27.84
2022-08-11T07:34:07.785Z,27.65
2022-08-11T07:36:28.602Z,27.57
2022-08-11T07:38:57.435Z,27.83
2022-08-11T07:41:25.979Z,27.83
2022-08-11T07:44:09.095Z,27.87
2022-08-11T07:47:00.891Z,27.75
2022-08-11T07:49:48.201Z,27.63
2022-08-11T07:52:32.176Z,27.76
2022-08-11T07:55:00.827Z,27.89
2022-08-11T07:58:14.251Z,27.93
2022-08-11T08:00:56.497Z,28.07
2022-08-11T08:03:54.094Z,28.03
2022-08-11T08:06:41.776Z,27.91
2022-08-11T08:09:28.765Z,28.02
2022-08-11T08:12:18.715Z,28.13
2022-08-11T08:15:04.520Z,28.31
2022-08-11T08:18:08.328Z,28.11
2022-08-11T08:20:38.979Z,28.37
2022-08-11T08:23:06.681Z,28.48
2022-08-11T08:25:35.292Z,28.53
2022-08-11T08:28:05.630Z,28.66
2022-08-11T08:30:47.855Z,28.78
2022-08-11T08:33:17.636Z,28.89
2022-08-11T08:38:29.839Z,29.06
2022-08-11T08:40:57.419Z,28.99
2022-08-11T08:43:25.273Z,29.03
2022-08-11T08:45:55.793Z,28.96
2022-08-11T08:48:24.723Z,28.67
2022-08-11T08:51:13.514Z,28.86
2022-08-11T08:53:52.402Z,29.05
2022-08-11T08:56:25.087Z,29.13
2022-08-11T08:58:52.437Z,29.18
2022-08-11T09:01:22.291Z,29.07
2022-08-11T09:04:05.355Z,29.31
2022-08-11T09:06:40.272Z,29.60
2022-08-11T09:09:08.993Z,29.79
2022-08-11T09:11:55.520Z,29.93
2022-08-11T09:14:25.026Z,30.01
2022-08-11T09:16:53.075Z,29.53
2022-08-11T09:19:21.136Z,29.47
2022-08-11T09:22:08.038Z,29.91
2022-08-11T09:24:55.568Z,30.13
2022-08-11T09:27:23.098Z,30.46
2022-08-11T09:29:51.029Z,30.66
2022-08-11T09:32:22.374Z,30.97
2022-08-11T09:34:51.990Z,31.65
2022-08-11T09:37:55.815Z,31.51
2022-08-11T09:40:30.954Z,30.95
2022-08-11T09:43:17.179Z,30.48
2022-08-11T09:45:51.578Z,30.44
2022-08-11T09:48:19.924Z,29.87
2022-08-11T09:50:51.793Z,29.82
2022-08-11T09:53:35.731Z,29.87
2022-08-11T09:56:30.445Z,29.91
2022-08-11T09:58:58.225Z,29.98
2022-08-11T10:01:28.245Z,30.09
2022-08-11T10:03:58.802Z,29.86
2022-08-11T10:06:47.535Z,30.00
2022-08-11T10:09:19.808Z,30.13
2022-08-11T10:11:57.782Z,29.97
2022-08-11T10:14:45.067Z,30.08
2022-08-11T10:17:13.664Z,30.28
2022-08-11T10:19:42.366Z,30.38
2022-08-11T10:22:28.142Z,29.93
2022-08-11T10:25:19.668Z,30.06
2022-08-11T10:28:28.547Z,30.12
2022-08-11T10:30:57.442Z,30.29
2022-08-11T10:33:53.364Z,30.44
2022-08-11T10:36:27.424Z,30.50
2022-08-11T10:38:55.786Z,30.59
2022-08-11T10:42:08.508Z,30.26
2022-08-11T10:44:33.809Z,30.23
2022-08-11T10:47:20.272Z,30.24
2022-08-11T10:50:07.843Z,30.41
2022-08-11T10:52:54.619Z,30.40
2022-08-11T10:55:41.533Z,30.36
2022-08-11T10:58:28.209Z,30.15
2022-08-11T11:00:58.985Z,30.14
2022-08-11T11:03:27.933Z,30.16
2022-08-11T11:06:27.584Z,30.25
2022-08-11T11:08:52.914Z,30.26
2022-08-11T11:11:45.132Z,30.35
2022-08-11T11:14:34.805Z,30.47
2022-08-11T11:17:09.396Z,30.48
2022-08-11T11:19:38.789Z,30.33
2022-08-11T11:22:25.231Z,30.05
2022-08-11T11:25:00.559Z,30.07
2022-08-11T11:27:31.234Z,30.05
2022-08-11T11:30:08.760Z,29.73
2022-08-11T11:32:35.968Z,29.72
2022-08-11T11:35:03.133Z,29.91
2022-08-11T11:37:32.335Z,30.08
2022-08-11T11:40:01.755Z,30.18
2022-08-11T11:42:30.031Z,30.09
2022-08-11T11:45:00.483Z,29.93
2022-08-11T11:47:29.770Z,29.74
2022-08-11T11:49:57.236Z,29.77
2022-08-11T11:52:24.945Z,30.00
2022-08-11T11:54:55.072Z,30.11
2022-08-11T11:57:41.619Z,30.25
2022-08-11T12:00:44.745Z,29.91
2022-08-11T12:03:12.710Z,29.90
2022-08-11T12:05:42.201Z,30.06
2022-08-11T12:08:23.402Z,30.15
2022-08-11T12:11:21.134Z,30.31
2022-08-11T12:13:50.412Z,30.34
2022-08-11T12:16:33.349Z,30.05
2022-08-11T12:19:11.918Z,30.25
2022-08-11T12:22:01.163Z,30.38
2022-08-11T12:24:51.061Z,30.51
2022-08-11T12:27:24.228Z,30.53
2022-08-11T12:30:00.354Z,30.25
2022-08-11T12:32:28.993Z,30.31
2022-08-11T12:34:58.025Z,30.43
2022-08-11T12:38:10.664Z,30.45
2022-08-11T12:41:15.094Z,30.59
2022-08-11T12:44:04.759Z,30.44
2022-08-11T12:46:33.775Z,30.53
2022-08-11T12:49:23.579Z,30.43
2022-08-11T12:52:14.407Z,30.51
2022-08-11T12:54:57.455Z,30.48
2022-08-11T12:57:46.602Z,30.50
2022-08-11T13:00:32.885Z,30.54
2022-08-11T13:03:19.413Z,30.54
2022-08-11T13:05:47.662Z,30.57
2022-08-11T13:08:15.718Z,30.62
2022-08-11T13:11:02.224Z,30.60
2022-08-11T13:13:55.742Z,30.60
2022-08-11T13:16:17.820Z,30.53
2022-08-11T13:18:45.245Z,30.47
2022-08-11T13:21:20.741Z,30.49
2022-08-11T13:23:59.963Z,30.46
2022-08-11T13:26:46.620Z,30.52
2022-08-11T13:29:20.545Z,30.54
2022-08-11T13:31:48.632Z,30.55
2022-08-11T13:34:17.803Z,30.60
2022-08-11T13:36:45.418Z,30.53
2022-08-11T13:39:13.491Z,30.55
2022-08-11T13:41:42.299Z,30.34
2022-08-11T13:44:10.662Z,30.37
2022-08-11T13:46:39.171Z,30.45
2022-08-11T13:49:09.208Z,30.50
2022-08-11T13:51:38.362Z,30.49
2022-08-11T13:54:07.370Z,30.51
2022-08-11T13:56:36.673Z,30.58
2022-08-11T13:59:04.335Z,30.60
2022-08-11T14:02:20.286Z,30.60
2022-08-11T14:04:33.420Z,30.47
2022-08-11T14:07:03.371Z,30.47
2022-08-11T14:09:35.117Z,30.53
2022-08-11T14:12:24.537Z,30.58
2022-08-11T14:15:08.559Z,30.57
2022-08-11T14:17:49.046Z,30.65
2022-08-11T14:20:39.012Z,30.63
2022-08-11T14:23:05.384Z,30.64
2022-08-11T14:26:00.841Z,30.58
2022-08-11T14:28:31.849Z,30.51
2022-08-11T14:31:02.929Z,30.50
2022-08-11T14:33:38.162Z,30.48
2022-08-11T14:36:23.115Z,30.51
2022-08-11T14:38:50.883Z,30.54
2022-08-11T14:41:37.377Z,30.53
2022-08-11T14:44:43.912Z,30.51
2022-08-11T14:47:23.843Z,30.37
2022-08-11T14:50:10.339Z,30.37
2022-08-11T14:52:43.382Z,30.46
2022-08-11T14:55:30.139Z,30.40
2022-08-11T14:57:58.169Z,30.38
2022-08-11T15:00:26.056Z,30.37
2022-08-11T15:03:12.942Z,30.41
2022-08-11T15:05:57.036Z,30.43
2022-08-11T15:08:48.318Z,30.42
2022-08-11T15:11:35.515Z,30.49
2022-08-11T15:14:03.741Z,30.42
2022-08-11T15:16:49.632Z,30.37
2022-08-11T15:19:21.252Z,30.46
2022-08-11T15:22:08.249Z,30.51
2022-08-11T15:24:36.651Z,30.45
2022-08-11T15:27:29.860Z,30.46
2022-08-11T15:30:32.483Z,30.48
2022-08-11T15:33:25.363Z,30.44
2022-08-11T15:36:11.690Z,30.46
2022-08-11T15:38:44.485Z,30.51
2022-08-11T15:41:34.018Z,30.42
2022-08-11T15:44:44.517Z,30.43
2022-08-11T15:47:14.313Z,30.31
2022-08-11T15:50:11.392Z,30.32
2022-08-11T15:52:34.718Z,30.27
2022-08-11T15:55:06.266Z,30.22
2022-08-11T15:57:55.470Z,30.17
2022-08-11T16:00:41.668Z,30.20
2022-08-11T16:03:54.388Z,30.35
2022-08-11T16:06:16.437Z,30.28
2022-08-11T16:08:45.080Z,30.29
2022-08-11T16:11:13.429Z,30.26
2022-08-11T16:13:40.697Z,30.22
2022-08-11T16:16:14.618Z,30.12
2022-08-11T16:18:53.940Z,30.13
2022-08-11T16:21:33.798Z,30.11
2022-08-11T16:24:04.921Z,30.10
2022-08-11T16:27:07.646Z,30.09
2022-08-11T16:29:23.674Z,30.12
2022-08-11T16:32:11.516Z,30.13
2022-08-11T16:34:57.942Z,30.11
2022-08-11T16:37:44.476Z,30.06
2022-08-11T16:40:12.227Z,30.03
2022-08-11T16:43:05.288Z,30.04
2022-08-11T16:45:58.515Z,30.02
2022-08-11T16:48:37.252Z,29.98
2022-08-11T16:51:10.523Z,29.97
2022-08-11T16:54:03.498Z,29.97
2022-08-11T16:56:43.575Z,29.98
2022-08-11T16:59:16.957Z,29.96
2022-08-11T17:01:47.867Z,29.97
2022-08-11T17:04:53.816Z,29.93
2022-08-11T17:07:43.157Z,29.93
2022-08-11T17:10:53.396Z,29.93
2022-08-11T17:13:23.878Z,29.79
2022-08-11T17:16:08.663Z,29.68
2022-08-11T17:18:40.796Z,29.62
2022-08-11T17:21:12.664Z,29.60
2022-08-11T17:23:47.481Z,29.58
2022-08-11T17:26:16.766Z,29.54
2022-08-11T17:28:44.898Z,29.51
2022-08-11T17:31:32.873Z,29.48
2022-08-11T17:34:18.864Z,29.47
2022-08-11T17:36:47.197Z,29.44
2022-08-11T17:39:15.045Z,29.44
2022-08-11T17:42:02.170Z,29.41
2022-08-11T17:44:49.281Z,29.38
2022-08-11T17:47:36.233Z,29.35
2022-08-11T17:50:09.495Z,29.31
2022-08-11T17:53:03.722Z,29.30
2022-08-11T17:55:53.382Z,29.26
2022-08-11T17:58:40.251Z,29.19
2022-08-11T18:01:10.035Z,29.18
2022-08-11T18:03:41.793Z,29.16
2022-08-11T18:06:33.503Z,29.10
2022-08-11T18:09:20.114Z,29.02
2022-08-11T18:12:11.714Z,29.06
2022-08-11T18:14:59.342Z,29.00
2022-08-11T18:17:45.359Z,29.01
2022-08-11T18:20:31.113Z,28.93
2022-08-11T18:23:20.035Z,28.87
2022-08-11T18:26:07.693Z,28.84
2022-08-11T18:29:01.311Z,28.81
2022-08-11T18:31:48.824Z,28.80
2022-08-11T18:34:36.281Z,28.79
2022-08-11T18:37:29.460Z,28.89
2022-08-11T18:40:18.106Z,28.86
2022-08-11T18:43:05.598Z,28.82
2022-08-11T18:45:57.483Z,28.65
2022-08-11T18:48:55.580Z,28.66
2022-08-11T18:51:42.434Z,28.58
2022-08-11T18:54:30.586Z,28.50
2022-08-11T18:57:18.683Z,28.45
2022-08-11T19:00:05.720Z,28.50
2022-08-11T19:02:53.987Z,28.53
2022-08-11T19:06:32.422Z,28.56
2022-08-11T19:08:47.840Z,28.52
2022-08-11T19:11:33.951Z,28.46
2022-08-11T19:14:20.806Z,28.43
2022-08-11T19:17:08.258Z,28.44
2022-08-11T19:19:55.873Z,28.28
2022-08-11T19:22:42.698Z,28.11
2022-08-11T19:25:29.357Z,28.19
2022-08-11T19:28:17.242Z,28.21
2022-08-11T19:31:03.646Z,28.19
2022-08-11T19:34:02.457Z,28.05
2022-08-11T19:36:57.099Z,28.13
2022-08-11T19:39:44.094Z,28.12
2022-08-11T19:42:31.399Z,28.12
2022-08-11T19:45:18.353Z,28.03
2022-08-11T19:48:30.025Z,28.03
2022-08-11T19:51:11.149Z,28.05
2022-08-11T19:53:57.779Z,28.02
2022-08-11T19:56:44.113Z,27.98
2022-08-11T19:59:29.951Z,27.97
2022-08-11T20:02:15.969Z,28.08
2022-08-11T20:05:02.316Z,28.12
2022-08-11T20:07:48.666Z,28.13
2022-08-11T20:10:36.617Z,28.11
2022-08-11T20:13:24.727Z,28.06
2022-08-11T20:16:13.154Z,27.96
2022-08-11T20:18:59.910Z,27.89
2022-08-11T20:21:46.760Z,27.95
2022-08-11T20:24:34.112Z,27.99
2022-08-11T20:27:24.571Z,28.03
2022-08-11T20:30:12.383Z,28.05
2022-08-11T20:32:59.265Z,28.11
2022-08-11T20:35:45.832Z,28.08
2022-08-11T20:38:33.727Z,28.23
2022-08-11T20:41:20.533Z,28.08
2022-08-11T20:44:09.178Z,27.67
2022-08-11T20:47:00.042Z,27.07
2022-08-11T20:49:53.740Z,26.67
2022-08-11T20:52:47.540Z,26.79
2022-08-11T20:55:51.205Z,26.75
2022-08-11T20:59:13.334Z,26.67
2022-08-11T21:01:47.209Z,26.82
2022-08-11T21:04:37.933Z,27.00
2022-08-11T21:07:41.356Z,27.24
2022-08-11T21:10:28.927Z,27.31
2022-08-11T21:13:26.384Z,27.41
2022-08-11T21:16:26.207Z,27.52
2022-08-11T21:20:00.094Z,27.53
2022-08-11T21:22:42.399Z,27.58
2022-08-11T21:25:45.997Z,27.70
2022-08-11T21:28:33.180Z,27.74
2022-08-11T21:31:22.563Z,27.64
2022-08-11T21:34:09.503Z,27.47
2022-08-11T21:36:55.573Z,27.34
2022-08-11T21:39:42.486Z,26.94
2022-08-11T21:42:29.097Z,26.85
2022-08-11T21:45:15.446Z,26.73
2022-08-11T21:48:02.876Z,26.65
2022-08-11T21:50:48.745Z,26.49
2022-08-11T21:53:34.962Z,25.57
2022-08-11T21:56:22.017Z,25.29
2022-08-11T21:59:12.735Z,25.00
2022-08-11T22:01:58.852Z,24.63
2022-08-11T22:04:44.726Z,24.17
2022-08-11T22:07:30.575Z,24.01
2022-08-11T22:10:35.959Z,23.99
2022-08-11T22:13:26.312Z,23.52
2022-08-11T22:16:12.736Z,23.45
2022-08-11T22:18:58.722Z,23.48
2022-08-11T22:22:02.446Z,23.51
2022-08-11T22:24:51.366Z,23.36
2022-08-11T22:27:37.782Z,23.29
2022-08-11T22:30:27.163Z,23.11
2022-08-11T22:33:15.046Z,22.65
2022-08-11T22:36:01.946Z,22.64
2022-08-11T22:38:49.753Z,22.82
2022-08-11T22:41:35.937Z,22.93
2022-08-11T22:44:22.425Z,23.07
2022-08-11T22:47:09.685Z,23.05
2022-08-11T22:49:58.544Z,22.66
2022-08-11T22:52:46.543Z,22.35
2022-08-11T22:55:33.149Z,22.41
2022-08-11T22:58:20.497Z,22.48
2022-08-11T23:01:07.028Z,22.59
2022-08-11T23:03:53.934Z,22.54
2022-08-11T23:06:40.206Z,22.33
2022-08-11T23:09:26.995Z,22.38
2022-08-11T23:12:13.833Z,22.46
2022-08-11T23:15:00.202Z,22.46
2022-08-11T23:17:46.999Z,22.57
2022-08-11T23:20:40.423Z,22.14
2022-08-11T23:23:39.381Z,22.31
2022-08-11T23:26:25.476Z,22.49
2022-08-11T23:29:11.869Z,22.45
2022-08-11T23:31:57.908Z,22.49
2022-08-11T23:35:04.667Z,22.52
2022-08-11T23:37:52.779Z,22.46
2022-08-11T23:40:38.522Z,22.48
2022-08-11T23:43:24.320Z,22.57
2022-08-11T23:46:10.342Z,22.51
2022-08-11T23:48:56.869Z,22.55
2022-08-11T23:51:43.753Z,22.50
2022-08-11T23:54:36.462Z,22.48
2022-08-11T23:57:23.390Z,22.39
